createdAt,value
2018-08-18T00:00:49.122Z,0.00
2018-08-18T00:01:49.121Z,0.00
2018-08-18T00:02:49.335Z,0.00
2018-08-18T00:03:49.125Z,0.00
2018-08-18T00:04:49.127Z,0.00
2018-08-18T00:05:49.128Z,0.00
2018-08-18T00:06:49.354Z,0.00
2018-08-18T00:07:49.131Z,0.00
2018-08-18T00:08:49.336Z,0.00
2018-08-18T00:09:49.164Z,0.00
2018-08-18T00:10:49.349Z,0.00
2018-08-18T00:11:49.148Z,0.00
2018-08-18T00:12:49.138Z,0.00
2018-08-18T00:13:49.140Z,0.00
2018-08-18T00:14:49.142Z,0.00
2018-08-18T00:15:49.345Z,0.00
2018-08-18T00:16:49.168Z,0.00
2018-08-18T00:17:49.349Z,0.00
2018-08-18T00:18:49.149Z,0.00
2018-08-18T00:19:49.147Z,0.00
2018-08-18T00:20:49.166Z,0.00
2018-08-18T00:21:49.151Z,0.00
2018-08-18T00:22:49.164Z,0.00
2018-08-18T00:23:49.155Z,0.00
2018-08-18T00:24:49.165Z,0.00
2018-08-18T00:25:49.156Z,0.00
2018-08-18T00:26:49.160Z,0.00
2018-08-18T00:27:49.363Z,0.00
2018-08-18T00:28:49.160Z,0.00
2018-08-18T00:29:49.167Z,0.00
2018-08-18T00:30:49.376Z,0.00
2018-08-18T00:31:49.165Z,0.00
2018-08-18T00:32:49.175Z,0.00
2018-08-18T00:33:49.167Z,0.00
2018-08-18T00:34:49.172Z,0.00
2018-08-18T00:35:49.386Z,0.00
2018-08-18T00:36:49.183Z,0.00
2018-08-18T00:37:49.174Z,0.00
2018-08-18T00:38:49.175Z,0.00
2018-08-18T00:39:49.375Z,0.00
2018-08-18T00:40:49.378Z,0.00
2018-08-18T00:41:49.180Z,0.00
2018-08-18T00:42:49.180Z,0.00
2018-08-18T00:43:49.179Z,0.00
2018-08-18T00:44:49.183Z,0.00
2018-08-18T00:45:49.182Z,0.00
2018-08-18T00:46:49.387Z,0.00
2018-08-18T00:47:49.236Z,0.00
2018-08-18T00:48:49.199Z,0.00
2018-08-18T00:49:49.397Z,0.00
2018-08-18T00:50:49.191Z,0.00
2018-08-18T00:51:49.191Z,0.00
2018-08-18T00:52:49.192Z,0.00
2018-08-18T00:53:49.207Z,0.00
2018-08-18T00:54:49.224Z,0.00
2018-08-18T00:55:49.206Z,0.00
2018-08-18T00:56:49.409Z,0.00
2018-08-18T00:57:49.198Z,0.00
2018-08-18T00:58:49.401Z,0.00
2018-08-18T00:59:49.209Z,0.00
2018-08-18T01:00:49.200Z,0.00
2018-08-18T01:01:49.419Z,0.00
2018-08-18T01:02:49.406Z,0.00
2018-08-18T01:03:49.203Z,0.00
2018-08-18T01:04:49.423Z,0.00
2018-08-18T01:05:49.407Z,0.00
2018-08-18T01:06:49.218Z,0.00
2018-08-18T01:07:49.407Z,0.00
2018-08-18T01:08:49.219Z,0.00
2018-08-18T01:09:49.222Z,0.00
2018-08-18T01:10:49.477Z,0.00
2018-08-18T01:11:49.353Z,0.00
2018-08-18T01:12:49.324Z,0.00
2018-08-18T01:13:49.378Z,0.00
2018-08-18T01:14:49.321Z,0.00
2018-08-18T01:15:49.438Z,0.00
2018-08-18T01:16:49.234Z,0.00
2018-08-18T01:17:49.218Z,0.00
2018-08-18T01:18:49.220Z,0.00
2018-08-18T01:19:49.219Z,0.00
2018-08-18T01:20:49.236Z,0.00
2018-08-18T01:21:49.221Z,0.00
2018-08-18T01:22:49.233Z,0.00
2018-08-18T01:23:49.428Z,0.00
2018-08-18T01:24:49.439Z,0.00
2018-08-18T01:25:49.429Z,0.00
2018-08-18T01:26:49.229Z,0.00
2018-08-18T01:27:49.229Z,0.00
2018-08-18T01:28:49.436Z,0.00
2018-08-18T01:29:49.434Z,0.00
2018-08-18T01:30:49.246Z,0.00
2018-08-18T01:31:49.245Z,0.00
2018-08-18T01:32:49.232Z,0.00
2018-08-18T01:33:49.246Z,0.00
2018-08-18T01:34:49.238Z,0.00
2018-08-18T01:35:49.439Z,0.00
2018-08-18T01:36:49.237Z,0.00
2018-08-18T01:37:49.250Z,0.00
2018-08-18T01:38:49.243Z,0.00
2018-08-18T01:39:49.447Z,0.00
2018-08-18T01:40:49.242Z,0.00
2018-08-18T01:41:49.244Z,0.00
2018-08-18T01:42:49.243Z,0.00
2018-08-18T01:43:49.297Z,0.00
2018-08-18T01:44:49.259Z,0.00
2018-08-18T01:45:49.263Z,0.00
2018-08-18T01:46:49.252Z,0.00
2018-08-18T01:47:49.248Z,0.00
2018-08-18T01:48:49.249Z,0.00
2018-08-18T01:49:49.474Z,0.00
2018-08-18T01:50:49.252Z,0.00
2018-08-18T01:51:49.251Z,0.00
2018-08-18T01:52:49.264Z,0.00
2018-08-18T01:53:49.470Z,0.00
2018-08-18T01:54:49.271Z,0.00
2018-08-18T01:55:49.469Z,0.00
2018-08-18T01:56:49.267Z,0.00
2018-08-18T01:57:49.463Z,0.00
2018-08-18T01:58:49.261Z,0.00
2018-08-18T01:59:49.270Z,0.00
2018-08-18T02:00:49.262Z,0.00
2018-08-18T02:01:49.273Z,0.00
2018-08-18T02:02:49.286Z,0.00
2018-08-18T02:03:49.264Z,0.00
2018-08-18T02:04:49.473Z,0.00
2018-08-18T02:05:49.499Z,0.00
2018-08-18T02:06:49.277Z,0.00
2018-08-18T02:07:49.285Z,0.00
2018-08-18T02:08:49.286Z,0.00
2018-08-18T02:09:49.487Z,0.00
2018-08-18T02:10:49.275Z,0.00
2018-08-18T02:11:49.271Z,0.00
2018-08-18T02:12:49.271Z,0.00
2018-08-18T02:13:49.275Z,0.00
2018-08-18T02:14:49.273Z,0.00
2018-08-18T02:15:49.284Z,0.00
2018-08-18T02:16:49.296Z,0.00
2018-08-18T02:17:49.277Z,0.00
2018-08-18T02:18:49.295Z,0.00
2018-08-18T02:19:49.486Z,0.00
2018-08-18T02:20:49.295Z,0.00
2018-08-18T02:21:49.280Z,0.00
2018-08-18T02:22:49.284Z,0.00
2018-08-18T02:23:49.289Z,0.00
2018-08-18T02:24:49.285Z,0.00
2018-08-18T02:25:49.280Z,0.00
2018-08-18T02:26:49.314Z,0.00
2018-08-18T02:27:49.283Z,0.00
2018-08-18T02:28:49.307Z,0.00
2018-08-18T02:29:49.286Z,0.00
2018-08-18T02:30:49.287Z,0.00
2018-08-18T02:31:49.288Z,0.00
2018-08-18T02:32:49.287Z,0.00
2018-08-18T02:33:49.294Z,0.00
2018-08-18T02:34:49.493Z,0.00
2018-08-18T02:35:49.505Z,0.00
2018-08-18T02:36:49.293Z,0.00
2018-08-18T02:37:49.495Z,0.00
2018-08-18T02:38:49.497Z,0.00
2018-08-18T02:39:49.295Z,0.00
2018-08-18T02:40:49.294Z,0.00
2018-08-18T02:41:49.509Z,0.00
2018-08-18T02:42:49.308Z,0.00
2018-08-18T02:43:49.309Z,0.00
2018-08-18T02:44:49.304Z,0.00
2018-08-18T02:45:49.504Z,0.00
2018-08-18T02:46:49.303Z,0.00
2018-08-18T02:47:49.503Z,0.00
2018-08-18T02:48:49.313Z,0.00
2018-08-18T02:49:49.313Z,0.00
2018-08-18T02:50:49.305Z,0.00
2018-08-18T02:51:49.322Z,0.00
2018-08-18T02:52:49.308Z,0.00
2018-08-18T02:53:49.333Z,0.00
2018-08-18T02:54:49.349Z,0.00
2018-08-18T02:55:49.309Z,0.00
2018-08-18T02:56:49.346Z,0.00
2018-08-18T02:57:49.513Z,0.00
2018-08-18T02:58:49.325Z,0.00
2018-08-18T02:59:49.328Z,0.00
2018-08-18T03:00:49.313Z,0.00
2018-08-18T03:01:49.344Z,0.00
2018-08-18T03:02:49.315Z,0.00
2018-08-18T03:03:49.519Z,0.00
2018-08-18T03:04:49.330Z,0.00
2018-08-18T03:05:49.327Z,0.00
2018-08-18T03:06:49.318Z,0.00
2018-08-18T03:07:49.349Z,0.00
2018-08-18T03:08:49.323Z,0.00
2018-08-18T03:09:49.333Z,0.00
2018-08-18T03:10:49.523Z,0.00
2018-08-18T03:11:49.321Z,0.00
2018-08-18T03:12:49.336Z,0.00
2018-08-18T03:13:49.333Z,0.00
2018-08-18T03:14:49.323Z,0.00
2018-08-18T03:15:49.333Z,0.00
2018-08-18T03:16:49.336Z,0.00
2018-08-18T03:17:49.341Z,0.00
2018-08-18T03:18:49.326Z,0.00
2018-08-18T03:19:49.341Z,0.00
2018-08-18T03:20:49.327Z,0.00
2018-08-18T03:21:49.328Z,0.00
2018-08-18T03:22:49.340Z,0.00
2018-08-18T03:23:49.334Z,0.00
2018-08-18T03:24:49.538Z,0.00
2018-08-18T03:25:49.534Z,0.00
2018-08-18T03:26:49.341Z,0.00
2018-08-18T03:27:49.331Z,0.00
2018-08-18T03:28:49.341Z,0.00
2018-08-18T03:29:49.334Z,0.00
2018-08-18T03:30:49.349Z,0.00
2018-08-18T03:31:49.567Z,0.00
2018-08-18T03:32:49.553Z,0.00
2018-08-18T03:33:49.337Z,0.00
2018-08-18T03:34:49.366Z,0.00
2018-08-18T03:35:49.351Z,0.00
2018-08-18T03:36:49.540Z,0.00
2018-08-18T03:37:49.337Z,0.00
2018-08-18T03:38:49.340Z,0.00
2018-08-18T03:39:49.552Z,0.00
2018-08-18T03:40:49.340Z,0.00
2018-08-18T03:41:49.544Z,0.00
2018-08-18T03:42:49.354Z,0.00
2018-08-18T03:43:49.546Z,0.00
2018-08-18T03:44:49.544Z,0.00
2018-08-18T03:45:49.343Z,0.00
2018-08-18T03:46:49.547Z,0.00
2018-08-18T03:47:49.357Z,0.00
2018-08-18T03:48:49.359Z,0.00
2018-08-18T03:49:49.347Z,0.00
2018-08-18T03:50:49.346Z,0.00
2018-08-18T03:51:49.358Z,0.00
2018-08-18T03:52:49.571Z,0.00
2018-08-18T03:53:49.551Z,0.00
2018-08-18T03:54:49.551Z,0.00
2018-08-18T03:55:49.350Z,0.00
2018-08-18T03:56:49.368Z,0.00
2018-08-18T03:57:49.360Z,0.00
2018-08-18T03:58:49.351Z,0.00
2018-08-18T03:59:49.350Z,0.00
2018-08-18T04:00:49.372Z,0.00
2018-08-18T04:01:49.404Z,0.00
2018-08-18T04:02:49.573Z,0.00
2018-08-18T04:03:49.355Z,0.00
2018-08-18T04:04:49.352Z,0.00
2018-08-18T04:05:49.556Z,0.00
2018-08-18T04:06:49.355Z,4.00
2018-08-18T04:07:49.354Z,0.00
2018-08-18T04:08:49.357Z,0.00
2018-08-18T04:09:49.557Z,0.00
2018-08-18T04:10:49.560Z,0.00
2018-08-18T04:11:49.358Z,4.00
2018-08-18T04:12:49.356Z,0.00
2018-08-18T04:13:49.575Z,0.00
2018-08-18T04:14:49.360Z,4.00
2018-08-18T04:15:49.358Z,4.00
2018-08-18T04:16:49.572Z,4.00
2018-08-18T04:17:49.362Z,4.00
2018-08-18T04:18:49.625Z,4.00
2018-08-18T04:19:49.392Z,4.00
2018-08-18T04:20:49.563Z,4.00
2018-08-18T04:21:49.591Z,8.00
2018-08-18T04:22:49.394Z,4.00
2018-08-18T04:23:49.568Z,8.00
2018-08-18T04:24:49.393Z,8.00
2018-08-18T04:25:49.362Z,8.00
2018-08-18T04:26:49.363Z,8.00
2018-08-18T04:27:49.364Z,8.00
2018-08-18T04:28:49.376Z,12.00
2018-08-18T04:29:49.566Z,12.00
2018-08-18T04:30:49.565Z,8.00
2018-08-18T04:31:49.369Z,12.00
2018-08-18T04:32:49.380Z,12.00
2018-08-18T04:33:49.363Z,12.00
2018-08-18T04:34:49.367Z,16.00
2018-08-18T04:35:49.364Z,16.00
2018-08-18T04:36:49.368Z,16.00
2018-08-18T04:37:49.366Z,20.00
2018-08-18T04:38:49.367Z,16.00
2018-08-18T04:39:49.568Z,16.00
2018-08-18T04:40:49.378Z,20.00
2018-08-18T04:41:49.572Z,20.00
2018-08-18T04:42:49.368Z,20.00
2018-08-18T04:43:49.590Z,24.00
2018-08-18T04:44:49.570Z,24.00
2018-08-18T04:45:49.573Z,28.00
2018-08-18T04:46:49.381Z,24.00
2018-08-18T04:47:49.372Z,32.00
2018-08-18T04:48:49.584Z,28.00
2018-08-18T04:49:49.382Z,32.00
2018-08-18T04:50:49.372Z,36.00
2018-08-18T04:51:49.577Z,36.00
2018-08-18T04:52:49.392Z,36.00
2018-08-18T04:53:49.386Z,40.00
2018-08-18T04:54:49.392Z,40.00
2018-08-18T04:55:49.573Z,40.00
2018-08-18T04:56:49.408Z,44.00
2018-08-18T04:57:49.398Z,44.00
2018-08-18T04:58:49.375Z,44.00
2018-08-18T04:59:49.593Z,52.00
2018-08-18T05:00:49.375Z,56.00
2018-08-18T05:01:49.607Z,68.00
2018-08-18T05:02:49.393Z,72.00
2018-08-18T05:03:49.381Z,76.00
2018-08-18T05:04:49.397Z,80.00
2018-08-18T05:05:49.376Z,80.00
2018-08-18T05:06:49.377Z,80.00
2018-08-18T05:07:49.395Z,84.00
2018-08-18T05:08:49.405Z,88.00
2018-08-18T05:09:49.390Z,92.00
2018-08-18T05:10:49.413Z,88.00
2018-08-18T05:11:49.607Z,96.00
2018-08-18T05:12:49.380Z,96.00
2018-08-18T05:13:49.392Z,96.00
2018-08-18T05:14:49.412Z,92.00
2018-08-18T05:15:49.398Z,92.00
2018-08-18T05:16:49.384Z,92.00
2018-08-18T05:17:49.383Z,96.00
2018-08-18T05:18:49.434Z,96.00
2018-08-18T05:19:49.382Z,92.00
2018-08-18T05:20:49.586Z,96.00
2018-08-18T05:21:49.400Z,96.00
2018-08-18T05:22:49.394Z,120.00
2018-08-18T05:23:49.385Z,204.00
2018-08-18T05:24:49.386Z,140.00
2018-08-18T05:25:49.419Z,120.00
2018-08-18T05:26:49.399Z,192.00
2018-08-18T05:27:49.387Z,172.00
2018-08-18T05:28:49.397Z,104.00
2018-08-18T05:29:49.387Z,96.00
2018-08-18T05:30:49.399Z,96.00
2018-08-18T05:31:49.387Z,96.00
2018-08-18T05:32:49.605Z,100.00
2018-08-18T05:33:49.405Z,100.00
2018-08-18T05:34:49.389Z,100.00
2018-08-18T05:35:49.389Z,104.00
2018-08-18T05:36:49.592Z,108.00
2018-08-18T05:37:49.400Z,108.00
2018-08-18T05:38:49.392Z,108.00
2018-08-18T05:39:49.392Z,108.00
2018-08-18T05:40:49.609Z,112.00
2018-08-18T05:41:49.395Z,112.00
2018-08-18T05:42:49.392Z,116.00
2018-08-18T05:43:49.405Z,112.00
2018-08-18T05:44:49.611Z,116.00
2018-08-18T05:45:49.411Z,116.00
2018-08-18T05:46:49.425Z,120.00
2018-08-18T05:47:49.405Z,120.00
2018-08-18T05:48:49.608Z,124.00
2018-08-18T05:49:49.400Z,128.00
2018-08-18T05:50:49.614Z,128.00
2018-08-18T05:51:49.412Z,128.00
2018-08-18T05:52:49.415Z,128.00
2018-08-18T05:53:49.412Z,128.00
2018-08-18T05:54:49.632Z,124.00
2018-08-18T05:55:49.401Z,128.00
2018-08-18T05:56:49.405Z,128.00
2018-08-18T05:57:49.401Z,132.00
2018-08-18T05:58:49.418Z,128.00
2018-08-18T05:59:49.748Z,128.00
2018-08-18T06:00:49.417Z,132.00
2018-08-18T06:01:49.407Z,132.00
2018-08-18T06:02:49.610Z,136.00
2018-08-18T06:03:49.619Z,136.00
2018-08-18T06:04:49.429Z,136.00
2018-08-18T06:05:49.428Z,144.00
2018-08-18T06:06:49.410Z,148.00
2018-08-18T06:07:49.410Z,152.00
2018-08-18T06:08:49.424Z,156.00
2018-08-18T06:09:49.412Z,156.00
2018-08-18T06:10:49.426Z,156.00
2018-08-18T06:11:49.415Z,156.00
2018-08-18T06:12:49.432Z,160.00
2018-08-18T06:13:49.428Z,164.00
2018-08-18T06:14:49.641Z,168.00
2018-08-18T06:15:49.618Z,172.00
2018-08-18T06:16:49.430Z,180.00
2018-08-18T06:17:49.420Z,176.00
2018-08-18T06:18:49.425Z,176.00
2018-08-18T06:19:49.422Z,176.00
2018-08-18T06:20:49.435Z,176.00
2018-08-18T06:21:49.429Z,180.00
2018-08-18T06:22:49.638Z,176.00
2018-08-18T06:23:49.633Z,180.00
2018-08-18T06:24:49.629Z,180.00
2018-08-18T06:25:49.632Z,184.00
2018-08-18T06:26:49.432Z,188.00
2018-08-18T06:27:49.441Z,196.00
2018-08-18T06:28:49.443Z,192.00
2018-08-18T06:29:49.636Z,188.00
2018-08-18T06:30:49.450Z,192.00
2018-08-18T06:31:49.446Z,192.00
2018-08-18T06:32:49.436Z,200.00
2018-08-18T06:33:49.449Z,204.00
2018-08-18T06:34:49.491Z,204.00
2018-08-18T06:35:49.644Z,236.00
2018-08-18T06:36:49.440Z,252.00
2018-08-18T06:37:49.454Z,264.00
2018-08-18T06:38:49.455Z,252.00
2018-08-18T06:39:49.472Z,232.00
2018-08-18T06:40:49.448Z,228.00
2018-08-18T06:41:49.666Z,236.00
2018-08-18T06:42:49.451Z,268.00
2018-08-18T06:43:49.468Z,340.00
2018-08-18T06:44:49.474Z,336.00
2018-08-18T06:45:49.673Z,384.00
2018-08-18T06:46:49.685Z,460.00
2018-08-18T06:47:49.478Z,568.00
2018-08-18T06:48:49.460Z,572.00
2018-08-18T06:49:49.471Z,444.00
2018-08-18T06:50:49.462Z,460.00
2018-08-18T06:51:49.462Z,580.00
2018-08-18T06:52:49.481Z,748.00
2018-08-18T06:53:49.681Z,948.00
2018-08-18T06:54:49.555Z,1840.00
2018-08-18T06:55:49.685Z,5092.00
2018-08-18T06:56:49.694Z,10504.00
2018-08-18T06:57:49.496Z,16480.00
2018-08-18T06:58:49.705Z,20288.00
2018-08-18T06:59:49.496Z,23296.00
2018-08-18T07:00:49.488Z,17408.00
2018-08-18T07:01:49.494Z,6388.00
2018-08-18T07:02:49.496Z,6272.00
2018-08-18T07:03:49.482Z,11700.00
2018-08-18T07:04:49.517Z,10536.00
2018-08-18T07:05:49.500Z,1508.00
2018-08-18T07:06:49.504Z,596.00
2018-08-18T07:07:49.490Z,704.00
2018-08-18T07:08:49.511Z,2296.00
2018-08-18T07:09:49.496Z,8360.00
2018-08-18T07:10:49.501Z,4860.00
2018-08-18T07:11:49.700Z,1976.00
2018-08-18T07:12:49.703Z,1980.00
2018-08-18T07:13:49.503Z,504.00
2018-08-18T07:14:49.507Z,504.00
2018-08-18T07:15:49.722Z,556.00
2018-08-18T07:16:49.523Z,696.00
2018-08-18T07:17:49.511Z,660.00
2018-08-18T07:18:49.540Z,536.00
2018-08-18T07:19:49.517Z,656.00
2018-08-18T07:20:49.516Z,532.00
2018-08-18T07:21:49.530Z,464.00
2018-08-18T07:22:49.538Z,468.00
2018-08-18T07:23:49.534Z,500.00
2018-08-18T07:24:49.525Z,568.00
2018-08-18T07:25:49.540Z,652.00
2018-08-18T07:26:49.746Z,944.00
2018-08-18T07:27:49.734Z,764.00
2018-08-18T07:28:49.894Z,608.00
2018-08-18T07:29:49.748Z,552.00
2018-08-18T07:30:49.740Z,540.00
2018-08-18T07:31:49.554Z,548.00
2018-08-18T07:32:49.558Z,552.00
2018-08-18T07:33:49.542Z,544.00
2018-08-18T07:34:49.549Z,544.00
2018-08-18T07:35:49.548Z,544.00
2018-08-18T07:36:49.552Z,556.00
2018-08-18T07:37:49.577Z,564.00
2018-08-18T07:38:49.759Z,544.00
2018-08-18T07:39:49.567Z,532.00
2018-08-18T07:40:49.581Z,532.00
2018-08-18T07:41:49.590Z,516.00
2018-08-18T07:42:49.582Z,484.00
2018-08-18T07:43:49.783Z,468.00
2018-08-18T07:44:49.787Z,464.00
2018-08-18T07:45:49.585Z,456.00
2018-08-18T07:46:49.577Z,460.00
2018-08-18T07:47:49.793Z,484.00
2018-08-18T07:48:49.608Z,512.00
2018-08-18T07:49:49.785Z,536.00
2018-08-18T07:50:49.596Z,556.00
2018-08-18T07:51:49.798Z,524.00
2018-08-18T07:52:49.603Z,488.00
2018-08-18T07:53:49.593Z,476.00
2018-08-18T07:54:49.594Z,528.00
2018-08-18T07:55:49.796Z,708.00
2018-08-18T07:56:49.626Z,940.00
2018-08-18T07:57:49.611Z,3668.00
2018-08-18T07:58:49.805Z,8420.00
2018-08-18T07:59:49.701Z,5312.00
2018-08-18T08:00:49.807Z,1228.00
2018-08-18T08:01:49.639Z,700.00
2018-08-18T08:02:49.608Z,720.00
2018-08-18T08:03:49.614Z,904.00
2018-08-18T08:04:49.629Z,1324.00
2018-08-18T08:05:49.914Z,9304.00
2018-08-18T08:06:49.630Z,12996.00
2018-08-18T08:07:49.621Z,8828.00
2018-08-18T08:08:49.634Z,1196.00
2018-08-18T08:09:49.830Z,1244.00
2018-08-18T08:10:49.832Z,1520.00
2018-08-18T08:11:49.659Z,1048.00
2018-08-18T08:12:49.672Z,1020.00
2018-08-18T08:13:49.652Z,1240.00
2018-08-18T08:14:49.852Z,1600.00
2018-08-18T08:15:49.849Z,2428.00
2018-08-18T08:16:49.649Z,6580.00
2018-08-18T08:17:49.649Z,5304.00
2018-08-18T08:18:49.652Z,7672.00
2018-08-18T08:19:49.672Z,4560.00
2018-08-18T08:20:49.658Z,5892.00
2018-08-18T08:21:49.663Z,8704.00
2018-08-18T08:22:49.667Z,7440.00
2018-08-18T08:23:49.681Z,5720.00
2018-08-18T08:24:49.876Z,11688.00
2018-08-18T08:25:49.676Z,14432.00
2018-08-18T08:26:49.885Z,15424.00
2018-08-18T08:27:49.685Z,10036.00
2018-08-18T08:28:49.689Z,3740.00
2018-08-18T08:29:49.692Z,1952.00
2018-08-18T08:30:49.697Z,1584.00
2018-08-18T08:31:49.706Z,1324.00
2018-08-18T08:32:49.700Z,1096.00
2018-08-18T08:33:49.704Z,1016.00
2018-08-18T08:34:49.911Z,968.00
2018-08-18T08:35:49.711Z,952.00
2018-08-18T08:36:49.857Z,980.00
2018-08-18T08:37:49.719Z,1304.00
2018-08-18T08:38:49.727Z,2036.00
2018-08-18T08:39:49.726Z,1476.00
2018-08-18T08:40:49.738Z,1484.00
2018-08-18T08:41:49.736Z,2932.00
2018-08-18T08:42:49.763Z,2296.00
2018-08-18T08:43:49.751Z,2992.00
2018-08-18T08:44:49.757Z,2976.00
2018-08-18T08:45:49.766Z,2492.00
2018-08-18T08:46:49.758Z,7212.00
2018-08-18T08:47:49.769Z,13464.00
2018-08-18T08:48:49.790Z,21888.00
2018-08-18T08:49:49.795Z,17024.00
2018-08-18T08:50:49.767Z,24128.00
2018-08-18T08:51:49.773Z,16512.00
2018-08-18T08:52:49.786Z,4540.00
2018-08-18T08:53:49.791Z,2244.00
2018-08-18T08:54:49.795Z,2452.00
2018-08-18T08:55:50.000Z,2612.00
2018-08-18T08:56:49.794Z,2300.00
2018-08-18T08:57:49.805Z,3000.00
2018-08-18T08:58:50.053Z,11508.00
2018-08-18T08:59:49.833Z,29088.00
2018-08-18T09:00:49.812Z,18176.00
2018-08-18T09:01:49.814Z,5488.00
2018-08-18T09:02:49.834Z,3264.00
2018-08-18T09:03:49.822Z,3764.00
2018-08-18T09:04:50.028Z,10544.00
2018-08-18T09:05:49.832Z,14560.00
2018-08-18T09:06:49.838Z,22336.00
2018-08-18T09:07:49.864Z,10944.00
2018-08-18T09:08:49.852Z,2444.00
2018-08-18T09:09:49.863Z,1376.00
2018-08-18T09:10:49.854Z,968.00
2018-08-18T09:11:50.072Z,752.00
2018-08-18T09:12:50.064Z,664.00
2018-08-18T09:13:49.875Z,652.00
2018-08-18T09:14:49.868Z,652.00
2018-08-18T09:15:49.888Z,648.00
2018-08-18T09:16:49.876Z,632.00
2018-08-18T09:17:49.878Z,600.00
2018-08-18T09:18:49.886Z,544.00
2018-08-18T09:19:50.104Z,500.00
2018-08-18T09:20:49.910Z,480.00
2018-08-18T09:21:50.116Z,468.00
2018-08-18T09:22:50.116Z,464.00
2018-08-18T09:23:49.904Z,456.00
2018-08-18T09:24:49.907Z,456.00
2018-08-18T09:25:49.951Z,452.00
2018-08-18T09:26:50.150Z,444.00
2018-08-18T09:27:49.917Z,448.00
2018-08-18T09:28:49.934Z,452.00
2018-08-18T09:29:49.955Z,448.00
2018-08-18T09:30:49.953Z,448.00
2018-08-18T09:31:49.932Z,420.00
2018-08-18T09:32:49.935Z,424.00
2018-08-18T09:33:49.941Z,412.00
2018-08-18T09:34:49.943Z,424.00
2018-08-18T09:35:49.956Z,416.00
2018-08-18T09:36:49.948Z,396.00
2018-08-18T09:37:49.964Z,384.00
2018-08-18T09:38:49.957Z,392.00
2018-08-18T09:39:50.162Z,396.00
2018-08-18T09:40:49.964Z,396.00
2018-08-18T09:41:50.179Z,396.00
2018-08-18T09:42:49.971Z,392.00
2018-08-18T09:43:50.001Z,380.00
2018-08-18T09:44:49.977Z,380.00
2018-08-18T09:45:49.991Z,384.00
2018-08-18T09:46:49.983Z,376.00
2018-08-18T09:47:49.986Z,372.00
2018-08-18T09:48:49.988Z,372.00
2018-08-18T09:49:50.195Z,368.00
2018-08-18T09:50:49.995Z,364.00
2018-08-18T09:51:50.009Z,368.00
2018-08-18T09:52:50.003Z,372.00
2018-08-18T09:53:50.010Z,372.00
2018-08-18T09:54:50.245Z,364.00
2018-08-18T09:55:50.037Z,364.00
2018-08-18T09:56:50.020Z,360.00
2018-08-18T09:57:50.021Z,360.00
2018-08-18T09:58:50.235Z,356.00
2018-08-18T09:59:50.025Z,352.00
2018-08-18T10:00:50.030Z,356.00
2018-08-18T10:01:50.046Z,356.00
2018-08-18T10:02:50.046Z,348.00
2018-08-18T10:03:50.049Z,352.00
2018-08-18T10:04:50.244Z,344.00
2018-08-18T10:05:50.246Z,348.00
2018-08-18T10:06:50.049Z,356.00
2018-08-18T10:07:50.051Z,376.00
2018-08-18T10:08:50.054Z,376.00
2018-08-18T10:09:50.270Z,372.00
2018-08-18T10:10:50.062Z,360.00
2018-08-18T10:11:50.074Z,340.00
2018-08-18T10:12:50.078Z,336.00
2018-08-18T10:13:50.083Z,344.00
2018-08-18T10:14:50.073Z,344.00
2018-08-18T10:15:50.077Z,324.00
2018-08-18T10:16:50.079Z,328.00
2018-08-18T10:17:50.083Z,332.00
2018-08-18T10:18:50.099Z,340.00
2018-08-18T10:19:50.102Z,336.00
2018-08-18T10:20:50.305Z,316.00
2018-08-18T10:21:50.096Z,308.00
2018-08-18T10:22:50.129Z,308.00
2018-08-18T10:23:50.135Z,304.00
2018-08-18T10:24:50.118Z,356.00
2018-08-18T10:25:50.121Z,376.00
2018-08-18T10:26:50.114Z,388.00
2018-08-18T10:27:50.120Z,340.00
2018-08-18T10:28:50.148Z,244.00
2018-08-18T10:29:50.131Z,268.00
2018-08-18T10:30:50.148Z,316.00
2018-08-18T10:31:50.129Z,336.00
2018-08-18T10:32:50.364Z,336.00
2018-08-18T10:33:50.136Z,248.00
2018-08-18T10:34:50.139Z,300.00
2018-08-18T10:35:50.351Z,356.00
2018-08-18T10:36:50.157Z,344.00
2018-08-18T10:37:50.360Z,340.00
2018-08-18T10:38:50.180Z,360.00
2018-08-18T10:39:50.157Z,344.00
2018-08-18T10:40:50.164Z,348.00
2018-08-18T10:41:50.176Z,248.00
2018-08-18T10:42:50.364Z,236.00
2018-08-18T10:43:50.166Z,312.00
2018-08-18T10:44:50.168Z,368.00
2018-08-18T10:45:50.187Z,284.00
2018-08-18T10:46:50.379Z,340.00
2018-08-18T10:47:50.177Z,224.00
2018-08-18T10:48:50.181Z,216.00
2018-08-18T10:49:50.187Z,244.00
2018-08-18T10:50:50.190Z,272.00
2018-08-18T10:51:50.207Z,304.00
2018-08-18T10:52:50.197Z,328.00
2018-08-18T10:53:50.200Z,276.00
2018-08-18T10:54:50.403Z,336.00
2018-08-18T10:55:50.423Z,320.00
2018-08-18T10:56:50.409Z,304.00
2018-08-18T10:57:50.212Z,284.00
2018-08-18T10:58:50.216Z,332.00
2018-08-18T10:59:50.233Z,340.00
2018-08-18T11:00:50.230Z,316.00
2018-08-18T11:01:50.438Z,328.00
2018-08-18T11:02:50.432Z,364.00
2018-08-18T11:03:50.299Z,356.00
2018-08-18T11:04:50.233Z,340.00
2018-08-18T11:05:50.248Z,316.00
2018-08-18T11:06:50.242Z,332.00
2018-08-18T11:07:50.243Z,312.00
2018-08-18T11:08:50.247Z,316.00
2018-08-18T11:09:50.463Z,320.00
2018-08-18T11:10:50.256Z,312.00
2018-08-18T11:11:50.515Z,304.00
2018-08-18T11:12:50.270Z,292.00
2018-08-18T11:13:50.293Z,288.00
2018-08-18T11:14:50.280Z,288.00
2018-08-18T11:15:50.284Z,308.00
2018-08-18T11:16:50.271Z,320.00
2018-08-18T11:17:50.487Z,328.00
2018-08-18T11:18:50.297Z,316.00
2018-08-18T11:19:50.484Z,320.00
2018-08-18T11:20:50.285Z,308.00
2018-08-18T11:21:50.557Z,296.00
2018-08-18T11:22:50.294Z,240.00
2018-08-18T11:23:50.296Z,220.00
2018-08-18T11:24:50.310Z,252.00
2018-08-18T11:25:50.315Z,252.00
2018-08-18T11:26:50.317Z,260.00
2018-08-18T11:27:50.521Z,256.00
2018-08-18T11:28:50.664Z,256.00
2018-08-18T11:29:50.329Z,248.00
2018-08-18T11:30:50.334Z,256.00
2018-08-18T11:31:50.555Z,252.00
2018-08-18T11:32:50.346Z,256.00
2018-08-18T11:33:50.542Z,256.00
2018-08-18T11:34:50.347Z,260.00
2018-08-18T11:35:50.537Z,260.00
2018-08-18T11:36:50.540Z,268.00
2018-08-18T11:37:50.547Z,280.00
2018-08-18T11:38:50.372Z,276.00
2018-08-18T11:39:50.373Z,252.00
2018-08-18T11:40:50.556Z,220.00
2018-08-18T11:41:50.367Z,224.00
2018-08-18T11:42:50.371Z,208.00
2018-08-18T11:43:50.363Z,216.00
2018-08-18T11:44:50.567Z,228.00
2018-08-18T11:45:50.370Z,244.00
2018-08-18T11:46:50.650Z,264.00
2018-08-18T11:47:50.389Z,248.00
2018-08-18T11:48:50.390Z,224.00
2018-08-18T11:49:50.393Z,196.00
2018-08-18T11:50:50.589Z,188.00
2018-08-18T11:51:50.389Z,180.00
2018-08-18T11:52:50.392Z,172.00
2018-08-18T11:53:50.396Z,172.00
2018-08-18T11:54:50.400Z,172.00
2018-08-18T11:55:50.414Z,176.00
2018-08-18T11:56:50.409Z,184.00
2018-08-18T11:57:50.409Z,180.00
2018-08-18T11:58:50.422Z,176.00
2018-08-18T11:59:50.624Z,172.00
2018-08-18T12:00:50.422Z,168.00
2018-08-18T12:01:50.491Z,168.00
2018-08-18T12:02:50.431Z,168.00
2018-08-18T12:03:50.445Z,168.00
2018-08-18T12:04:50.433Z,160.00
2018-08-18T12:05:50.455Z,160.00
2018-08-18T12:06:50.451Z,168.00
2018-08-18T12:07:50.444Z,168.00
2018-08-18T12:08:50.451Z,164.00
2018-08-18T12:09:50.452Z,160.00
2018-08-18T12:10:50.667Z,152.00
2018-08-18T12:11:50.461Z,152.00
2018-08-18T12:12:50.464Z,156.00
2018-08-18T12:13:50.467Z,160.00
2018-08-18T12:14:50.482Z,164.00
2018-08-18T12:15:50.471Z,160.00
2018-08-18T12:16:50.689Z,156.00
2018-08-18T12:17:50.480Z,156.00
2018-08-18T12:18:50.482Z,160.00
2018-08-18T12:19:50.487Z,160.00
2018-08-18T12:20:50.489Z,152.00
2018-08-18T12:21:50.522Z,152.00
2018-08-18T12:22:50.498Z,156.00
2018-08-18T12:23:50.510Z,156.00
2018-08-18T12:24:50.517Z,156.00
2018-08-18T12:25:50.519Z,156.00
2018-08-18T12:26:50.714Z,156.00
2018-08-18T12:27:50.519Z,144.00
2018-08-18T12:28:50.520Z,148.00
2018-08-18T12:29:50.590Z,152.00
2018-08-18T12:30:50.556Z,152.00
2018-08-18T12:31:50.543Z,156.00
2018-08-18T12:32:50.534Z,148.00
2018-08-18T12:33:50.535Z,148.00
2018-08-18T12:34:50.546Z,160.00
2018-08-18T12:35:50.545Z,168.00
2018-08-18T12:36:50.633Z,160.00
2018-08-18T12:37:50.568Z,156.00
2018-08-18T12:38:50.782Z,144.00
2018-08-18T12:39:50.567Z,132.00
2018-08-18T12:40:50.778Z,136.00
2018-08-18T12:41:50.565Z,140.00
2018-08-18T12:42:50.568Z,136.00
2018-08-18T12:43:50.585Z,136.00